Terminal Aerodrome Forecast
Issued by NWS

Home | Current Version | Previous Version | Text Only | Print | Product List | Glossary On
Versions: 1 2 3 4 5 6 7 8 9 10 11 12 13 14 15 16 17 18 19
262
FTUS44 KLZK 212337
TAFLLQ
TAF
KLLQ 212337Z 2200/2224 15008KT P6SM VCSH BKN030 OVC100
     FM220400 20006KT P6SM -TSRA BKN025CB OVC050
     FM221000 22005KT P6SM -RA VCTS SCT010CB BKN025=

USA.gov is the U.S. government's official web portal to all federal, state and local government web resources and services.